aviador You're here:

EGUL Decoded Metar

LAKENHEATH in ENGLAND
Report Time2017-09-24 22:56:00
UTC Time2017-09-24 23:09:33
Flight Rules vfr VFR
Wind120° at 05 kt
W.Decomp.*RWY 06: 2.4 kt HW 4.4 kt RCW
W.Rank120° ranks 24
Current wind is below 120° avg. (6.5)
Visibility9999 m
Phenomena:N/A
Clouds:N/A
CeilingNone
Temp15°C (ISA 0)
Dew Point15°C (100% RH)
AAT14.8°C
QNH1019 hPa
Density Alt66 ft
Elevation33 ft
Report Wrong Elevation
Raw Report
METAR EGUL 242256Z AUTO 12005KT 9999 CLR 15/15 A3010 RMK AO2 DZB33E42
SLP196 P0000 T01530153 $=

Extra information for EGUL:More info

Metar Taf Metar & Taf Last 4 Metars F.Rules Stats Wind Profile Meteogram Temp Stats Airport Information Weather charts Add Link Nearby VenuesMetar ALERT Operation Metar Decoded Social comments